Villa Andalucia, Puerto Rico
Current Conditions -  °F | °C
As of 12:56 AM on Friday 31 Oct 2014 (Local Time) from TJSJ Reporting Station
Few Clouds Few Clouds  
Wind Chill: 26°   Ceiling: Unl
Heat Index: 28°   Visibility: 10mi
Dew Point: 24°   Wind: 5mph
Humidity: 90%   Direction: 200°SSW
Pressure: 29.84"   Gusts: NA
Location:  18.3754°N, 66.0577°W
Report Text: TJSJ 310456Z 20004KT 10SM FEW050 26/24 A2984 RMK AO2 SLP105 T02610244
Loading
Personal Weather Stations






























Interactive Weather Map
Tropical Storm Tracking
New forecast layout! Learn more

10-Day Weather Forecast

Advertisements
Track Severe Weather on mobile